Terminal Aerodrome Forecast
Issued by NWS

Home | Current Version | Previous Version | Text Only | Print | Product List | Glossary On
Versions: 1 2 3 4 5 6 7 8 9 10 11 12 13 14 15 16 17 18 19 20 21 22 23 24 25 26 27
600
FTUS43 KDVN 080754 AAA
TAFCID
TAF AMD
KCID 080754Z 0808/0906 31023G33KT P6SM VCSH SCT025 OVC030
      TEMPO 0809/0811 1SM -SN BR SCT009 OVC020
     FM081100 31019G28KT 3SM -SN BKN009 OVC015
     FM081500 32020G30KT 3SM -SHSN OVC015=

USA.gov is the U.S. government's official web portal to all federal, state and local government web resources and services.